Time;durP1;ratioP1;P1;durP2;ratioP2;P2;SDS_P1;SDS_P2;PMS_P1;PMS_P2;Temp;Humidity;BMP_temperature;BMP_pressure;BME280_temperature;BME280_humidity;BME280_pressure;Samples;Min_cycle;Max_cycle;Signal;HPM_P1;HPM_P2
2021/04/09 00:00:53;;;;;;;23.22;14.20;;;8.00;88.40;;;;;;1904414;73;21085;-69
2021/04/09 00:03:20;;;;;;;23.10;13.70;;;7.90;88.70;;;;;;1909743;73;21195;-71
2021/04/09 00:05:48;;;;;;;19.52;13.50;;;8.00;88.40;;;;;;1908766;73;21039;-70
2021/04/09 00:08:15;;;;;;;24.98;14.53;;;8.00;88.40;;;;;;1901721;73;21492;-70
2021/04/09 00:10:43;;;;;;;23.55;14.40;;;7.80;88.60;;;;;;1907006;73;21097;-70
2021/04/09 00:13:10;;;;;;;22.17;14.23;;;7.70;89.10;;;;;;1905966;73;21089;-71
2021/04/09 00:15:38;;;;;;;21.12;13.40;;;7.80;89.30;;;;;;1908723;73;21176;-70
2021/04/09 00:18:05;;;;;;;23.57;14.75;;;7.90;89.10;;;;;;1906935;73;21070;-69
2021/04/09 00:20:33;;;;;;;20.68;14.35;;;7.90;89.10;;;;;;1908840;73;21101;-70
2021/04/09 00:23:00;;;;;;;23.92;15.00;;;7.90;88.50;;;;;;1903978;73;21089;-71
2021/04/09 00:25:28;;;;;;;19.90;14.20;;;7.90;88.80;;;;;;1901221;73;21038;-68
2021/04/09 00:27:56;;;;;;;19.85;13.80;;;7.70;89.30;;;;;;1907715;73;21236;-68
2021/04/09 00:30:26;;;;;;;20.85;14.25;;;7.70;89.70;;;;;;1905066;73;21598;-69
2021/04/09 00:32:54;;;;;;;24.90;14.07;;;7.80;89.70;;;;;;1904838;73;21133;-68
2021/04/09 00:35:22;;;;;;;27.65;15.08;;;7.80;89.60;;;;;;1908210;73;21222;-69
2021/04/09 00:37:52;;;;;;;23.62;14.25;;;7.90;89.30;;;;;;1907396;73;21520;-69
2021/04/09 00:40:20;;;;;;;22.87;14.13;;;7.80;89.20;;;;;;1906659;73;21085;-68
2021/04/09 00:42:47;;;;;;;19.62;13.32;;;7.60;90.00;;;;;;1909386;73;21147;-69
2021/04/09 00:45:15;;;;;;;26.40;14.78;;;7.60;90.20;;;;;;1904366;73;21121;-69
2021/04/09 00:47:47;;;;;;;21.70;14.68;;;7.70;89.80;;;;;;1901653;73;21211;-69
2021/04/09 00:50:16;;;;;;;19.57;14.53;;;7.70;89.90;;;;;;1907996;73;21186;-68
2021/04/09 00:52:44;;;;;;;23.22;15.05;;;7.70;90.10;;;;;;1905021;73;21093;-69
2021/04/09 00:55:13;;;;;;;20.65;14.58;;;7.80;90.00;;;;;;1909589;73;21463;-68
2021/04/09 00:57:43;;;;;;;20.02;14.43;;;7.90;90.10;;;;;;1904200;73;21143;-69
2021/04/09 01:00:12;;;;;;;22.17;14.73;;;8.00;89.40;;;;;;1904142;73;21105;-68
2021/04/09 01:02:40;;;;;;;20.23;14.25;;;8.00;89.50;;;;;;1901204;73;21085;-68
2021/04/09 01:05:11;;;;;;;21.35;13.98;;;7.90;89.60;;;;;;1911822;73;21114;-68
2021/04/09 01:07:40;;;;;;;24.35;14.95;;;7.90;89.90;;;;;;1903805;73;21647;-69
2021/04/09 01:10:09;;;;;;;24.12;14.28;;;7.80;90.00;;;;;;1907549;73;21485;-69
2021/04/09 01:12:36;;;;;;;23.42;14.85;;;7.90;90.00;;;;;;1906029;73;21198;-69
2021/04/09 01:15:05;;;;;;;25.80;14.78;;;7.80;90.10;;;;;;1908419;73;21214;-69
2021/04/09 01:17:45;;;;;;;22.62;14.23;;;7.80;89.90;;;;;;1904287;73;21157;-70
2021/04/09 01:20:33;;;;;;;22.52;14.58;;;7.80;90.00;;;;;;1906452;73;21062;-69
2021/04/09 01:23:27;;;;;;;23.25;14.68;;;7.90;90.10;;;;;;1904721;73;21105;-70
2021/04/09 01:26:00;;;;;;;24.45;14.60;;;7.90;90.00;;;;;;1903773;73;21129;-68
2021/04/09 01:28:33;;;;;;;21.02;14.55;;;7.90;90.10;;;;;;1905081;73;21094;-69
2021/04/09 01:31:20;;;;;;;21.93;13.50;;;7.70;90.30;;;;;;1904071;73;21097;-68
2021/04/09 01:33:51;;;;;;;23.32;13.45;;;7.90;90.30;;;;;;1901740;73;21105;-68
2021/04/09 01:36:24;;;;;;;21.75;13.78;;;7.90;90.20;;;;;;1907369;73;21148;-68
2021/04/09 01:38:55;;;;;;;22.77;13.83;;;7.90;90.30;;;;;;1906437;73;21133;-69
2021/04/09 01:41:24;;;;;;;21.48;14.43;;;7.90;90.10;;;;;;1908404;73;21513;-68
2021/04/09 01:43:53;;;;;;;19.65;13.83;;;8.00;90.10;;;;;;1901500;73;21136;-69
2021/04/09 01:46:22;;;;;;;21.97;14.18;;;8.00;90.10;;;;;;1910519;73;21151;-68
2021/04/09 01:48:50;;;;;;;30.08;14.58;;;8.00;90.00;;;;;;1901841;73;21555;-69
2021/04/09 01:51:19;;;;;;;20.45;14.05;;;8.00;90.10;;;;;;1913968;73;21101;-68
2021/04/09 01:53:48;;;;;;;22.02;13.13;;;8.00;90.00;;;;;;1905011;73;21050;-69
2021/04/09 01:56:18;;;;;;;20.75;13.88;;;8.00;90.00;;;;;;1909255;73;21133;-69
2021/04/09 01:58:46;;;;;;;21.68;12.68;;;8.00;90.10;;;;;;1907513;73;21106;-70
2021/04/09 02:01:15;;;;;;;21.33;14.13;;;8.00;89.90;;;;;;1908258;73;21137;-70
2021/04/09 02:03:46;;;;;;;19.00;13.30;;;7.90;90.00;;;;;;1903236;73;21540;-69
2021/04/09 02:06:15;;;;;;;22.05;13.88;;;7.90;90.10;;;;;;1906791;73;21626;-70
2021/04/09 02:08:43;;;;;;;22.90;14.05;;;8.00;90.20;;;;;;1903408;73;21066;-69
2021/04/09 02:11:11;;;;;;;18.87;12.63;;;8.00;90.00;;;;;;1908601;73;21696;-68
2021/04/09 02:13:40;;;;;;;24.98;14.20;;;7.90;90.10;;;;;;1902159;73;21168;-69
2021/04/09 02:16:08;;;;;;;20.00;13.35;;;7.90;90.00;;;;;;1905932;73;21658;-70
2021/04/09 02:18:37;;;;;;;16.52;12.58;;;7.90;90.00;;;;;;1905580;73;21098;-69
2021/04/09 02:21:05;;;;;;;26.48;13.35;;;7.90;90.20;;;;;;1910934;73;21066;-69
2021/04/09 02:23:32;;;;;;;23.73;13.68;;;7.90;90.10;;;;;;1907670;73;21111;-70
2021/04/09 02:26:01;;;;;;;22.60;14.10;;;7.80;90.20;;;;;;1903271;73;21552;-69
2021/04/09 02:28:28;;;;;;;20.72;13.68;;;7.80;90.10;;;;;;1906144;73;21177;-69
2021/04/09 02:31:05;;;;;;;21.42;12.78;;;7.90;90.20;;;;;;1916113;73;21000;-70
2021/04/09 02:33:35;;;;;;;17.65;13.00;;;7.80;90.20;;;;;;1904949;73;21045;-69
2021/04/09 02:36:17;;;;;;;23.32;13.00;;;7.70;90.40;;;;;;1903255;73;21043;-70
2021/04/09 02:38:48;;;;;;;23.62;14.00;;;7.60;90.50;;;;;;1896464;73;21015;-69
2021/04/09 02:41:17;;;;;;;22.50;13.68;;;7.60;90.60;;;;;;1905898;73;21485;-69
2021/04/09 02:43:45;;;;;;;22.17;13.55;;;7.50;90.60;;;;;;1902776;73;21057;-69
2021/04/09 02:46:21;;;;;;;22.58;13.65;;;7.50;90.80;;;;;;1911280;73;21120;-70
2021/04/09 02:48:54;;;;;;;19.67;13.40;;;7.70;90.60;;;;;;1902779;73;21022;-69
2021/04/09 02:51:23;;;;;;;25.08;14.05;;;7.70;90.50;;;;;;1914952;73;21451;-70
2021/04/09 02:53:53;;;;;;;20.65;13.80;;;7.80;90.50;;;;;;1903957;73;21171;-70
2021/04/09 02:56:22;;;;;;;20.60;13.08;;;7.80;90.40;;;;;;1906997;73;21300;-70
2021/04/09 02:58:50;;;;;;;19.75;14.10;;;7.80;90.40;;;;;;1902672;73;21197;-69
2021/04/09 03:01:20;;;;;;;24.10;13.55;;;7.80;90.40;;;;;;1908608;73;21528;-69
2021/04/09 03:03:49;;;;;;;20.82;13.50;;;7.80;90.30;;;;;;1905764;73;21121;-70
2021/04/09 03:06:16;;;;;;;18.92;12.88;;;7.80;90.60;;;;;;1911730;73;21149;-70
2021/04/09 03:08:45;;;;;;;28.25;13.58;;;7.80;90.50;;;;;;1904862;73;21191;-69
2021/04/09 03:11:12;;;;;;;22.45;13.25;;;7.90;90.50;;;;;;1906220;73;21898;-71
2021/04/09 03:13:40;;;;;;;21.15;13.00;;;7.90;90.50;;;;;;1906530;73;21106;-69
2021/04/09 03:16:10;;;;;;;21.48;13.88;;;7.80;90.70;;;;;;1902960;73;21254;-70
2021/04/09 03:18:42;;;;;;;23.25;13.20;;;7.70;90.80;;;;;;1910118;73;21118;-69
2021/04/09 03:21:09;;;;;;;;;;;7.70;90.90;;;;;;1907433;73;21081;-68
2021/04/09 03:23:36;;;;;;;18.92;13.22;;;7.60;91.10;;;;;;1906225;73;20187;-68
2021/04/09 03:26:04;;;;;;;24.23;13.75;;;7.60;91.20;;;;;;1903442;73;21109;-68
2021/04/09 03:28:32;;;;;;;19.20;14.13;;;7.60;91.20;;;;;;1904024;73;21156;-69
2021/04/09 03:30:59;;;;;;;19.82;14.35;;;7.50;91.20;;;;;;1906803;73;22046;-70
2021/04/09 03:33:27;;;;;;;21.10;13.90;;;7.60;91.30;;;;;;1903552;73;21169;-68
2021/04/09 03:35:54;;;;;;;20.30;14.03;;;7.60;91.30;;;;;;1901591;73;21166;-68
2021/04/09 03:38:22;;;;;;;24.60;14.95;;;7.60;91.40;;;;;;1908795;73;21105;-70
2021/04/09 03:40:49;;;;;;;24.77;14.68;;;7.50;91.50;;;;;;1908951;73;21215;-69
2021/04/09 03:43:17;;;;;;;29.63;14.05;;;7.50;91.40;;;;;;1903082;73;21187;-69
2021/04/09 03:45:45;;;;;;;20.15;13.68;;;7.50;91.80;;;;;;1906735;73;21127;-69
2021/04/09 03:48:12;;;;;;;19.87;14.05;;;7.50;91.70;;;;;;1853174;72;21140;-66
2021/04/09 03:50:40;;;;;;;22.37;13.85;;;7.50;91.80;;;;;;1918577;73;21093;-67
2021/04/09 03:53:07;;;;;;;22.13;13.78;;;7.50;91.60;;;;;;1929193;73;21106;-66
2021/04/09 03:55:35;;;;;;;27.50;15.05;;;7.50;91.70;;;;;;1925656;73;21600;-67
2021/04/09 03:58:03;;;;;;;24.05;13.95;;;7.40;91.70;;;;;;1890873;73;21141;-67
2021/04/09 04:00:30;;;;;;;24.92;14.40;;;7.40;91.80;;;;;;1894380;73;21188;-66
2021/04/09 04:02:58;;;;;;;21.00;13.40;;;7.40;92.00;;;;;;1879301;76;21059;-66
2021/04/09 04:05:25;;;;;;;26.27;13.53;;;7.20;92.20;;;;;;1888515;74;21153;-66
2021/04/09 04:07:53;;;;;;;23.65;14.15;;;7.10;92.40;;;;;;1889035;74;21643;-65
2021/04/09 04:10:20;;;;;;;21.52;14.65;;;7.30;92.20;;;;;;1883548;75;21144;-65
2021/04/09 04:12:48;;;;;;;22.73;13.50;;;7.20;92.20;;;;;;1881645;74;21105;-67
2021/04/09 04:15:15;;;;;;;24.55;14.85;;;7.30;92.30;;;;;;1890364;74;21137;-66
2021/04/09 04:17:43;;;;;;;23.12;14.35;;;7.40;92.00;;;;;;1892193;74;21483;-66
2021/04/09 04:20:11;;;;;;;23.92;14.30;;;7.40;92.00;;;;;;1894766;74;21110;-67
2021/04/09 04:22:38;;;;;;;22.75;13.35;;;7.50;91.90;;;;;;1892969;74;21205;-67
2021/04/09 04:25:07;;;;;;;24.23;13.53;;;7.50;92.00;;;;;;1890467;74;21556;-67
2021/04/09 04:27:34;;;;;;;28.52;14.73;;;7.50;91.80;;;;;;1895195;74;21086;-67
2021/04/09 04:30:02;;;;;;;23.10;14.55;;;7.40;92.00;;;;;;1893644;74;21133;-66
2021/04/09 04:32:29;;;;;;;27.42;14.83;;;7.40;92.20;;;;;;1885815;74;21094;-67
2021/04/09 04:34:57;;;;;;;26.45;13.60;;;7.60;92.00;;;;;;1892392;74;21051;-67
2021/04/09 04:37:24;;;;;;;19.92;13.50;;;7.60;91.90;;;;;;1883792;74;21087;-67
2021/04/09 04:39:52;;;;;;;26.82;13.98;;;7.60;92.00;;;;;;1886850;74;21129;-67
2021/04/09 04:42:20;;;;;;;25.50;14.58;;;7.60;92.00;;;;;;1880581;74;21110;-67
2021/04/09 04:44:48;;;;;;;20.82;13.25;;;7.60;91.90;;;;;;1884925;74;21195;-66
2021/04/09 04:47:15;;;;;;;23.45;13.93;;;7.60;92.00;;;;;;1890906;74;21051;-67
2021/04/09 04:49:43;;;;;;;22.07;14.10;;;7.60;92.10;;;;;;1890013;74;21087;-66
2021/04/09 04:52:10;;;;;;;22.27;14.05;;;7.60;91.90;;;;;;1891403;74;21148;-68
2021/04/09 04:54:38;;;;;;;24.72;13.65;;;7.70;92.10;;;;;;1902296;74;21122;-69
2021/04/09 04:57:05;;;;;;;19.70;13.25;;;7.60;92.00;;;;;;1895656;74;21587;-68
2021/04/09 04:59:33;;;;;;;27.22;14.58;;;7.60;92.40;;;;;;1894219;74;21003;-68
2021/04/09 05:02:00;;;;;;;28.10;13.83;;;7.60;92.40;;;;;;1897778;74;21592;-68
2021/04/09 05:04:28;;;;;;;21.33;14.03;;;7.70;92.30;;;;;;1887334;74;21049;-68
2021/04/09 05:06:56;;;;;;;24.67;14.45;;;7.80;92.30;;;;;;1894794;74;21206;-69
2021/04/09 05:09:23;;;;;;;23.87;14.23;;;7.80;92.40;;;;;;1888433;74;21039;-69
2021/04/09 05:11:51;;;;;;;23.12;14.55;;;7.90;92.40;;;;;;1881259;75;21066;-68
2021/04/09 05:14:18;;;;;;;21.27;13.62;;;7.90;92.20;;;;;;1888899;74;21458;-68
2021/04/09 05:16:46;;;;;;;24.45;13.48;;;7.80;92.30;;;;;;1893567;74;21102;-69
2021/04/09 05:19:13;;;;;;;20.88;14.07;;;7.80;92.30;;;;;;1887877;74;21083;-69
2021/04/09 05:21:41;;;;;;;24.18;13.00;;;7.80;92.40;;;;;;1888267;74;21061;-68
2021/04/09 05:24:09;;;;;;;20.97;13.45;;;7.90;92.40;;;;;;1895346;73;21003;-68
2021/04/09 05:26:36;;;;;;;20.50;13.48;;;8.00;92.40;;;;;;1888163;74;21074;-72
2021/04/09 05:29:04;;;;;;;22.02;13.62;;;8.00;92.30;;;;;;1889037;74;21118;-68
2021/04/09 05:31:34;;;;;;;20.23;13.45;;;8.20;92.10;;;;;;1892295;74;21042;-68
2021/04/09 05:34:01;;;;;;;23.98;13.13;;;8.10;92.00;;;;;;1887940;74;21175;-68
2021/04/09 05:36:30;;;;;;;24.63;12.93;;;8.20;92.10;;;;;;1895984;74;21021;-67
2021/04/09 05:38:57;;;;;;;25.92;13.62;;;8.20;92.00;;;;;;1894138;74;22059;-68
2021/04/09 05:41:25;;;;;;;24.32;14.23;;;8.20;92.10;;;;;;1890817;74;21114;-69
2021/04/09 05:43:53;;;;;;;23.98;13.53;;;8.30;92.10;;;;;;1888666;73;21149;-68
2021/04/09 05:46:21;;;;;;;25.75;13.28;;;8.40;92.10;;;;;;1886494;73;21186;-69
2021/04/09 05:48:48;;;;;;;20.25;12.47;;;8.30;91.90;;;;;;1888995;74;21205;-68
2021/04/09 05:51:15;;;;;;;22.00;13.03;;;8.30;92.00;;;;;;1893620;74;21549;-68
2021/04/09 05:53:43;;;;;;;25.55;13.15;;;8.20;92.00;;;;;;1897137;74;21059;-67
2021/04/09 05:56:11;;;;;;;23.38;13.08;;;8.20;92.20;;;;;;1895511;74;21098;-68
2021/04/09 05:58:38;;;;;;;22.00;12.63;;;8.20;92.20;;;;;;1894503;74;21066;-67
2021/04/09 06:01:06;;;;;;;24.82;12.60;;;8.30;92.20;;;;;;1887375;74;21034;-68
2021/04/09 06:03:33;;;;;;;25.57;12.55;;;8.30;92.00;;;;;;1890769;74;21191;-67
2021/04/09 06:06:00;;;;;;;25.97;12.25;;;8.40;92.20;;;;;;1883357;75;21082;-67
2021/04/09 06:08:28;;;;;;;21.00;12.82;;;8.40;92.10;;;;;;1884401;74;21145;-68
2021/04/09 06:10:55;;;;;;;20.95;12.43;;;8.50;92.10;;;;;;1886714;74;21434;-68
2021/04/09 06:13:23;;;;;;;25.27;12.85;;;8.50;92.00;;;;;;1885419;74;21098;-67
2021/04/09 06:15:50;;;;;;;27.22;12.35;;;8.40;92.00;;;;;;1887994;74;21031;-66
2021/04/09 06:18:18;;;;;;;20.90;12.37;;;8.40;92.10;;;;;;1892664;74;21600;-66
2021/04/09 06:20:46;;;;;;;25.35;11.63;;;8.40;92.10;;;;;;1890740;74;21542;-66
2021/04/09 06:23:13;;;;;;;20.68;12.37;;;8.50;92.30;;;;;;1850433;76;21089;-66
2021/04/09 06:25:41;;;;;;;23.30;13.38;;;8.50;92.40;;;;;;1845436;76;21046;-67
2021/04/09 06:28:08;;;;;;;23.62;13.13;;;8.60;92.20;;;;;;1839935;76;21207;-67
2021/04/09 06:30:36;;;;;;;29.92;12.10;;;8.60;92.30;;;;;;1845824;76;21633;-67
2021/04/09 06:33:04;;;;;;;24.07;12.45;;;8.60;92.10;;;;;;1837349;76;21073;-68
2021/04/09 06:35:32;;;;;;;22.45;12.88;;;8.60;92.10;;;;;;1839570;76;21236;-66
2021/04/09 06:37:59;;;;;;;19.65;11.93;;;8.70;92.10;;;;;;1851594;76;21132;-67
2021/04/09 06:40:28;;;;;;;21.80;11.80;;;8.70;92.10;;;;;;1894115;74;21346;-67
2021/04/09 06:42:58;;;;;;;25.82;12.45;;;8.60;92.20;;;;;;1886964;74;21110;-67
2021/04/09 06:45:26;;;;;;;25.65;13.25;;;8.60;92.30;;;;;;1906419;74;21624;-67
2021/04/09 06:47:55;;;;;;;19.42;12.33;;;8.70;92.30;;;;;;1894127;74;21188;-68
2021/04/09 06:50:28;;;;;;;26.77;13.00;;;8.70;92.50;;;;;;1896646;74;21135;-66
2021/04/09 06:52:56;;;;;;;23.45;12.98;;;8.70;92.30;;;;;;1889157;74;21126;-66
2021/04/09 06:55:24;;;;;;;24.50;12.28;;;8.70;92.30;;;;;;1885977;74;21179;-66
2021/04/09 06:57:53;;;;;;;20.50;12.58;;;8.70;92.50;;;;;;1897903;74;21804;-67
2021/04/09 07:00:23;;;;;;;22.82;12.40;;;8.70;92.50;;;;;;1901660;74;21050;-67
2021/04/09 07:05:21;;;;;;;21.12;12.63;;;8.80;92.70;;;;;;1922855;73;25451;-65
2021/04/09 07:07:49;;;;;;;23.65;11.68;;;9.00;92.50;;;;;;1895345;74;21595;-64
2021/04/09 07:10:17;;;;;;;24.25;12.50;;;9.00;92.40;;;;;;1900044;74;21100;-65
2021/04/09 07:12:46;;;;;;;21.48;12.60;;;9.10;92.50;;;;;;1900765;74;21171;-65
2021/04/09 07:15:18;;;;;;;20.15;12.15;;;9.10;92.60;;;;;;1895369;74;21013;-65
2021/04/09 07:17:48;;;;;;;21.27;11.55;;;9.10;92.70;;;;;;1905646;74;21545;-64
2021/04/09 07:20:20;;;;;;;20.92;11.93;;;9.00;92.50;;;;;;1898961;74;21081;-66
2021/04/09 07:22:56;;;;;;;21.20;11.68;;;9.00;93.00;;;;;;1906963;73;21089;-65
2021/04/09 07:25:30;;;;;;;21.70;12.20;;;9.10;93.30;;;;;;1905245;74;21003;-65
2021/04/09 07:28:18;;;;;;;23.52;12.88;;;9.20;92.90;;;;;;1899110;74;21072;-64
2021/04/09 07:30:50;;;;;;;19.50;12.25;;;9.20;93.00;;;;;;1897381;74;21070;-64
2021/04/09 07:33:20;;;;;;;25.90;12.40;;;9.10;93.30;;;;;;1901879;74;21176;-64
2021/04/09 07:35:56;;;;;;;23.05;12.55;;;9.20;93.60;;;;;;1902177;74;21230;-65
2021/04/09 07:38:26;;;;;;;23.55;13.50;;;9.30;93.40;;;;;;1902233;73;21133;-65
2021/04/09 07:41:05;;;;;;;18.62;11.63;;;9.20;93.60;;;;;;1897111;74;21129;-66
2021/04/09 07:43:35;;;;;;;20.72;11.75;;;9.40;93.70;;;;;;1903478;74;21286;-65
2021/04/09 07:46:05;;;;;;;19.67;12.28;;;9.40;93.50;;;;;;1894023;73;21716;-65
2021/04/09 07:49:00;;;;;;;25.85;11.63;;;9.50;93.80;;;;;;1902954;74;21137;-65
2021/04/09 07:51:27;;;;;;;19.30;11.65;;;9.60;93.40;;;;;;1892836;74;21112;-65
2021/04/09 07:53:58;;;;;;;22.80;12.53;;;9.60;93.60;;;;;;1890853;74;21132;-65
2021/04/09 07:56:25;;;;;;;22.82;12.18;;;9.70;93.60;;;;;;1890143;74;21171;-65
2021/04/09 07:58:57;;;;;;;23.95;11.83;;;9.80;93.50;;;;;;1892544;74;21151;-65
2021/04/09 08:01:26;;;;;;;21.40;12.28;;;9.80;93.80;;;;;;1893828;75;21069;-64
2021/04/09 08:03:57;;;;;;;21.60;11.48;;;9.80;93.40;;;;;;1891559;74;21034;-67
2021/04/09 08:06:44;;;;;;;19.82;11.60;;;9.80;93.50;;;;;;1893859;75;21543;-64
2021/04/09 08:09:11;;;;;;;22.00;11.90;;;9.80;93.70;;;;;;1851135;77;21191;-67
2021/04/09 08:11:39;;;;;;;20.35;11.65;;;9.90;93.90;;;;;;1853045;77;21198;-65
2021/04/09 08:14:26;;;;;;;21.97;11.70;;;10.00;94.10;;;;;;1848984;77;21167;-65
2021/04/09 08:16:55;;;;;;;22.45;11.33;;;10.20;93.60;;;;;;1849495;76;21172;-65
2021/04/09 08:19:24;;;;;;;19.52;11.33;;;10.10;93.50;;;;;;1852768;77;21152;-66
2021/04/09 08:21:57;;;;;;;22.52;11.50;;;10.10;93.80;;;;;;1852247;77;21171;-65
2021/04/09 08:24:28;;;;;;;20.70;11.85;;;10.30;93.70;;;;;;1852759;77;21038;-65
2021/04/09 08:26:57;;;;;;;21.37;12.43;;;10.30;93.60;;;;;;1847745;77;21210;-65
2021/04/09 08:29:25;;;;;;;18.62;10.68;;;10.30;93.40;;;;;;1850240;77;21080;-65
2021/04/09 08:31:53;;;;;;;19.12;10.93;;;10.30;93.60;;;;;;1849799;77;21214;-65
2021/04/09 08:34:22;;;;;;;18.50;11.60;;;10.30;93.70;;;;;;1849179;76;21200;-65
2021/04/09 08:36:50;;;;;;;18.20;10.50;;;10.40;93.90;;;;;;1850775;76;22700;-65
2021/04/09 08:39:19;;;;;;;17.48;11.15;;;10.50;93.90;;;;;;1847447;76;21109;-66
2021/04/09 08:41:49;;;;;;;18.45;10.60;;;10.60;94.30;;;;;;1849508;77;21518;-65
2021/04/09 08:44:17;;;;;;;20.00;10.70;;;10.70;93.90;;;;;;1848670;77;21701;-66
2021/04/09 08:46:46;;;;;;;19.55;11.38;;;10.60;93.10;;;;;;1850307;77;21136;-65
2021/04/09 08:49:17;;;;;;;17.42;10.98;;;10.60;93.50;;;;;;1847988;77;21839;-67
2021/04/09 08:51:45;;;;;;;19.50;11.30;;;10.70;93.80;;;;;;1821153;77;21587;-64
2021/04/09 08:54:28;;;;;;;21.68;10.72;;;10.80;94.20;;;;;;1846803;77;21108;-65
2021/04/09 08:56:53;;;;;;;18.75;10.70;;;10.80;93.40;;;;;;1846370;77;21528;-65
2021/04/09 08:59:42;;;;;;;20.37;10.98;;;10.80;93.80;;;;;;1812367;78;21534;-65
2021/04/09 09:02:27;;;;;;;22.85;11.15;;;11.00;94.10;;;;;;1849361;76;21034;-65
2021/04/09 09:05:06;;;;;;;22.40;11.50;;;11.10;93.70;;;;;;1853535;77;21057;-65
2021/04/09 09:07:48;;;;;;;19.55;10.23;;;11.10;93.20;;;;;;1848817;77;21253;-66
2021/04/09 09:10:28;;;;;;;19.57;11.00;;;11.00;93.10;;;;;;1850140;77;21444;-65
2021/04/09 09:13:14;;;;;;;17.10;10.53;;;11.00;93.10;;;;;;1851729;77;21047;-66
2021/04/09 09:15:45;;;;;;;18.32;10.65;;;11.20;93.50;;;;;;1848042;77;21500;-65
2021/04/09 09:18:28;;;;;;;17.90;10.28;;;11.20;93.40;;;;;;1850092;77;21156;-65
2021/04/09 09:21:10;;;;;;;23.35;10.35;;;11.30;93.10;;;;;;1846655;77;21116;-67
2021/04/09 09:23:49;;;;;;;17.80;11.53;;;11.20;93.30;;;;;;1851082;77;21174;-66
2021/04/09 09:26:41;;;;;;;34.45;16.65;;;11.30;93.30;;;;;;1851999;76;21099;-66
2021/04/09 09:29:23;;;;;;;22.62;11.22;;;11.50;93.30;;;;;;1849329;77;21112;-64
2021/04/09 09:31:57;;;;;;;23.35;10.90;;;11.60;93.50;;;;;;1851849;77;21033;-66
2021/04/09 09:34:27;;;;;;;15.68;10.45;;;11.60;93.10;;;;;;1853354;77;21022;-65
2021/04/09 09:37:02;;;;;;;21.95;10.90;;;11.60;93.20;;;;;;1848660;77;21089;-64
2021/04/09 09:39:40;;;;;;;29.55;10.78;;;11.80;93.40;;;;;;1850683;77;21468;-65
2021/04/09 09:42:10;;;;;;;19.92;10.23;;;11.80;93.20;;;;;;1850742;77;21167;-65
2021/04/09 09:44:44;;;;;;;17.80;10.08;;;11.80;92.60;;;;;;1849048;77;21137;-65
2021/04/09 09:47:22;;;;;;;16.55;10.38;;;11.70;92.90;;;;;;1848042;77;21184;-65
2021/04/09 09:50:10;;;;;;;17.35;9.98;;;11.60;93.00;;;;;;1851894;77;21077;-65
2021/04/09 09:53:05;;;;;;;13.72;9.58;;;11.70;93.80;;;;;;1851441;77;21913;-66
2021/04/09 09:55:46;;;;;;;46.53;16.37;;;11.70;93.40;;;;;;1841380;77;21425;-66
2021/04/09 09:58:29;;;;;;;21.35;11.55;;;11.80;93.70;;;;;;1846054;77;21160;-66
2021/04/09 10:00:56;;;;;;;17.70;10.88;;;11.90;93.50;;;;;;1848356;77;21575;-65
2021/04/09 10:03:30;;;;;;;16.75;11.12;;;11.90;93.70;;;;;;1851193;77;21741;-65
2021/04/09 10:06:00;;;;;;;17.10;9.80;;;12.00;93.10;;;;;;1846922;77;21102;-63
2021/04/09 10:08:30;;;;;;;15.38;10.90;;;11.90;93.20;;;;;;1848691;77;21167;-67
2021/04/09 10:11:00;;;;;;;16.32;10.85;;;12.10;93.20;;;;;;1849110;76;21101;-66
2021/04/09 10:13:31;;;;;;;16.73;11.68;;;12.10;92.90;;;;;;1850056;76;21132;-67
2021/04/09 10:16:16;;;;;;;16.67;10.13;;;12.10;93.80;;;;;;1845002;77;21155;-64
2021/04/09 10:18:48;;;;;;;14.10;10.03;;;12.30;93.50;;;;;;1850462;76;21118;-67
2021/04/09 10:21:17;;;;;;;16.93;10.43;;;12.50;92.90;;;;;;1846233;77;21155;-67
2021/04/09 10:23:47;;;;;;;29.98;12.35;;;12.50;92.30;;;;;;1842851;77;21081;-66
2021/04/09 10:26:16;;;;;;;16.62;10.05;;;12.60;92.70;;;;;;1853059;76;21136;-66
2021/04/09 10:28:43;;;;;;;16.20;9.83;;;12.70;92.50;;;;;;1852563;77;21377;-65
2021/04/09 10:31:19;;;;;;;13.83;9.20;;;12.80;92.40;;;;;;1848642;77;21171;-66
2021/04/09 10:33:49;;;;;;;13.40;8.48;;;13.00;92.40;;;;;;1845136;77;21270;-66
2021/04/09 10:36:27;;;;;;;16.85;8.78;;;12.90;91.70;;;;;;1849488;76;21082;-66
2021/04/09 10:38:58;;;;;;;16.75;9.00;;;12.70;91.90;;;;;;1849232;77;21124;-64
2021/04/09 10:41:31;;;;;;;12.35;8.73;;;12.80;91.90;;;;;;1850203;76;21135;-64
2021/04/09 10:44:08;;;;;;;13.62;8.23;;;12.80;91.80;;;;;;1849877;77;21124;-65
2021/04/09 10:46:39;;;;;;;13.93;7.97;;;12.80;91.60;;;;;;1850767;77;21383;-65
2021/04/09 10:49:13;;;;;;;11.68;7.80;;;12.90;91.70;;;;;;1845368;77;21081;-65
2021/04/09 10:51:50;;;;;;;12.88;7.80;;;12.90;90.70;;;;;;1848156;77;21487;-64
2021/04/09 10:54:23;;;;;;;15.85;8.20;;;12.90;91.20;;;;;;1849146;77;21144;-65
2021/04/09 10:56:56;;;;;;;16.67;8.53;;;12.80;91.00;;;;;;1845852;77;21152;-65
2021/04/09 10:59:35;;;;;;;12.60;8.08;;;12.80;91.20;;;;;;1849417;77;21137;-66
2021/04/09 11:02:05;;;;;;;14.15;8.68;;;12.80;92.20;;;;;;1846621;77;21198;-65
2021/04/09 11:04:34;;;;;;;12.73;8.10;;;12.90;91.40;;;;;;1851439;77;21136;-66
2021/04/09 11:07:05;;;;;;;12.95;8.38;;;12.90;91.30;;;;;;1852151;77;21156;-66
2021/04/09 11:09:48;;;;;;;13.75;7.95;;;13.00;92.00;;;;;;1852357;76;21164;-66
2021/04/09 11:12:24;;;;;;;15.45;8.78;;;13.00;91.20;;;;;;1850097;77;21552;-66
2021/04/09 11:15:14;;;;;;;12.28;7.65;;;12.80;91.30;;;;;;1848496;77;21078;-65
2021/04/09 11:17:53;;;;;;;11.48;6.97;;;13.00;91.60;;;;;;1849202;77;21108;-66
2021/04/09 11:20:26;;;;;;;13.38;7.15;;;13.00;91.00;;;;;;1852234;77;21163;-67
2021/04/09 11:23:03;;;;;;;11.63;7.67;;;13.00;91.40;;;;;;1852726;77;21049;-66
2021/04/09 11:25:42;;;;;;;12.43;7.97;;;13.10;91.00;;;;;;1851063;77;21085;-67
2021/04/09 11:28:28;;;;;;;12.00;7.87;;;13.20;91.70;;;;;;1851973;77;21167;-67
2021/04/09 11:31:01;;;;;;;15.08;8.58;;;13.20;90.90;;;;;;1850457;77;21112;-67
2021/04/09 11:33:39;;;;;;;11.30;7.50;;;13.20;91.00;;;;;;1851065;77;21041;-67
2021/04/09 11:36:21;;;;;;;12.00;7.53;;;13.10;90.80;;;;;;1851719;77;21034;-67
2021/04/09 11:38:53;;;;;;;12.55;7.45;;;13.00;91.00;;;;;;1850340;77;21128;-67
2021/04/09 11:41:32;;;;;;;15.30;7.90;;;13.00;91.60;;;;;;1851113;77;21038;-67
2021/04/09 11:44:01;;;;;;;17.05;7.17;;;13.00;91.30;;;;;;1851347;77;21105;-66
2021/04/09 11:46:36;;;;;;;13.10;8.25;;;13.00;91.90;;;;;;1846018;77;21110;-67
2021/04/09 11:49:06;;;;;;;16.02;7.85;;;13.00;91.20;;;;;;1851821;77;21713;-66
2021/04/09 11:51:35;;;;;;;16.73;7.67;;;13.00;91.40;;;;;;1853872;77;21175;-67
2021/04/09 11:54:04;;;;;;;11.55;7.80;;;13.00;91.90;;;;;;1849870;77;21171;-66
2021/04/09 11:56:43;;;;;;;12.45;8.55;;;12.90;91.80;;;;;;1848345;77;21176;-67
2021/04/09 11:59:19;;;;;;;16.32;8.20;;;13.00;91.60;;;;;;1850184;77;22372;-66
2021/04/09 12:01:48;;;;;;;15.72;8.88;;;12.90;92.10;;;;;;1847275;77;21101;-66
2021/04/09 12:04:36;;;;;;;15.80;7.87;;;13.00;92.50;;;;;;1846436;77;21203;-66
2021/04/09 12:07:06;;;;;;;15.70;7.75;;;13.10;91.80;;;;;;1851061;77;21117;-66
2021/04/09 12:09:33;;;;;;;12.43;8.03;;;13.10;91.70;;;;;;1848969;77;21124;-66
2021/04/09 12:12:01;;;;;;;13.55;7.92;;;13.40;91.20;;;;;;1848825;77;22156;-65
2021/04/09 12:14:35;;;;;;;11.28;7.12;;;13.80;90.90;;;;;;1849690;77;21061;-66
2021/04/09 12:17:06;;;;;;;14.05;8.13;;;14.10;90.60;;;;;;1852984;77;21205;-65
2021/04/09 12:19:39;;;;;;;14.40;9.10;;;14.20;90.50;;;;;;1849871;77;21132;-65
2021/04/09 12:22:09;;;;;;;11.95;7.92;;;14.10;90.00;;;;;;1852366;77;21101;-67
2021/04/09 12:24:37;;;;;;;12.18;7.50;;;14.10;90.00;;;;;;1839923;70;21101;-71
2021/04/09 12:27:06;;;;;;;11.48;7.60;;;13.90;89.10;;;;;;1834577;77;21075;-70
2021/04/09 12:29:34;;;;;;;13.43;8.55;;;13.70;89.50;;;;;;1832323;77;21051;-70
2021/04/09 12:32:03;;;;;;;14.28;7.37;;;13.50;89.90;;;;;;1835199;77;21612;-71
2021/04/09 12:34:31;;;;;;;10.55;7.37;;;13.50;89.30;;;;;;1842062;76;21154;-70
2021/04/09 12:36:58;;;;;;;10.30;6.85;;;13.50;90.10;;;;;;1844482;76;21220;-70
2021/04/09 12:39:26;;;;;;;14.15;7.53;;;13.50;90.00;;;;;;1845411;76;21111;-71
2021/04/09 12:41:53;;;;;;;12.78;7.40;;;13.40;90.40;;;;;;1844376;76;21202;-70
2021/04/09 12:44:22;;;;;;;10.65;7.33;;;13.40;90.30;;;;;;1839243;76;21171;-71
2021/04/09 12:46:51;;;;;;;10.53;6.85;;;13.50;90.50;;;;;;1838291;76;21111;-70
2021/04/09 12:49:21;;;;;;;12.07;7.55;;;13.40;90.20;;;;;;1841608;76;21221;-70
2021/04/09 12:51:50;;;;;;;13.53;8.25;;;13.40;90.10;;;;;;1847290;76;21623;-70
2021/04/09 12:54:19;;;;;;;16.82;10.60;;;13.30;90.10;;;;;;1845460;77;21127;-70
2021/04/09 12:56:46;;;;;;;15.23;10.38;;;13.20;90.50;;;;;;1851558;76;21095;-69